sensor_id;sensor_type;location;lat;lon;timestamp;temperature;humidity
59857;DHT22;45733;52.668;6.860;2022-07-29T00:00:53;15.20;99.90
59857;DHT22;45733;52.668;6.860;2022-07-29T00:03:19;15.20;99.90
59857;DHT22;45733;52.668;6.860;2022-07-29T00:05:45;15.30;99.90
59857;DHT22;45733;52.668;6.860;2022-07-29T00:08:11;15.30;99.90
59857;DHT22;45733;52.668;6.860;2022-07-29T00:10:37;15.10;99.90
59857;DHT22;45733;52.668;6.860;2022-07-29T00:13:02;15.20;99.90
59857;DHT22;45733;52.668;6.860;2022-07-29T00:15:28;15.10;99.90
59857;DHT22;45733;52.668;6.860;2022-07-29T00:17:54;15.10;99.90
59857;DHT22;45733;52.668;6.860;2022-07-29T00:20:20;15.20;99.90
59857;DHT22;45733;52.668;6.860;2022-07-29T00:22:46;15.20;99.90
59857;DHT22;45733;52.668;6.860;2022-07-29T00:25:12;15.10;99.90
59857;DHT22;45733;52.668;6.860;2022-07-29T00:27:38;15.10;99.90
59857;DHT22;45733;52.668;6.860;2022-07-29T00:30:05;15.10;99.90
59857;DHT22;45733;52.668;6.860;2022-07-29T00:32:31;15.10;99.90
59857;DHT22;45733;52.668;6.860;2022-07-29T00:34:57;15.10;99.90
59857;DHT22;45733;52.668;6.860;2022-07-29T00:37:41;15.10;99.90
59857;DHT22;45733;52.668;6.860;2022-07-29T00:40:07;15.10;99.90
59857;DHT22;45733;52.668;6.860;2022-07-29T00:42:49;15.10;99.90
59857;DHT22;45733;52.668;6.860;2022-07-29T00:45:15;15.20;99.90
59857;DHT22;45733;52.668;6.860;2022-07-29T00:47:41;15.10;99.90
59857;DHT22;45733;52.668;6.860;2022-07-29T00:50:10;15.20;99.90
59857;DHT22;45733;52.668;6.860;2022-07-29T00:52:37;15.10;99.90
59857;DHT22;45733;52.668;6.860;2022-07-29T00:55:09;15.20;99.90
59857;DHT22;45733;52.668;6.860;2022-07-29T00:57:35;15.10;99.90
59857;DHT22;45733;52.668;6.860;2022-07-29T01:00:07;15.10;99.90
59857;DHT22;45733;52.668;6.860;2022-07-29T01:02:33;15.10;99.90
59857;DHT22;45733;52.668;6.860;2022-07-29T01:04:59;15.00;99.90
59857;DHT22;45733;52.668;6.860;2022-07-29T01:07:26;15.00;99.90
59857;DHT22;45733;52.668;6.860;2022-07-29T01:09:53;15.00;99.90
59857;DHT22;45733;52.668;6.860;2022-07-29T01:12:39;15.00;99.90
59857;DHT22;45733;52.668;6.860;2022-07-29T01:15:06;15.00;99.90
59857;DHT22;45733;52.668;6.860;2022-07-29T01:29:24;15.00;99.90
59857;DHT22;45733;52.668;6.860;2022-07-29T01:32:05;15.10;99.90
59857;DHT22;45733;52.668;6.860;2022-07-29T01:34:50;15.10;99.90
59857;DHT22;45733;52.668;6.860;2022-07-29T01:37:28;15.00;99.90
59857;DHT22;45733;52.668;6.860;2022-07-29T01:39:57;15.10;99.90
59857;DHT22;45733;52.668;6.860;2022-07-29T01:44:59;15.00;99.90
59857;DHT22;45733;52.668;6.860;2022-07-29T01:47:31;15.10;99.90
59857;DHT22;45733;52.668;6.860;2022-07-29T01:50:00;15.10;99.90
59857;DHT22;45733;52.668;6.860;2022-07-29T01:52:49;15.00;99.90
59857;DHT22;45733;52.668;6.860;2022-07-29T01:55:20;15.00;99.90
59857;DHT22;45733;52.668;6.860;2022-07-29T01:57:48;15.00;99.90
59857;DHT22;45733;52.668;6.860;2022-07-29T02:00:15;15.00;99.90
59857;DHT22;45733;52.668;6.860;2022-07-29T02:02:45;15.10;99.90
59857;DHT22;45733;52.668;6.860;2022-07-29T02:05:15;15.00;99.90
59857;DHT22;45733;52.668;6.860;2022-07-29T02:07:43;15.00;99.90
59857;DHT22;45733;52.668;6.860;2022-07-29T02:10:13;15.00;99.90
59857;DHT22;45733;52.668;6.860;2022-07-29T02:12:40;14.90;99.90
59857;DHT22;45733;52.668;6.860;2022-07-29T02:15:08;15.00;99.90
59857;DHT22;45733;52.668;6.860;2022-07-29T02:17:50;14.90;99.90
59857;DHT22;45733;52.668;6.860;2022-07-29T02:20:17;14.90;99.90
59857;DHT22;45733;52.668;6.860;2022-07-29T02:22:44;14.90;99.90
59857;DHT22;45733;52.668;6.860;2022-07-29T02:25:11;14.90;99.90
59857;DHT22;45733;52.668;6.860;2022-07-29T02:27:39;15.00;99.90
59857;DHT22;45733;52.668;6.860;2022-07-29T02:30:06;14.90;99.90
59857;DHT22;45733;52.668;6.860;2022-07-29T02:32:35;14.90;99.90
59857;DHT22;45733;52.668;6.860;2022-07-29T02:35:03;14.90;99.90
59857;DHT22;45733;52.668;6.860;2022-07-29T02:37:30;14.90;99.90
59857;DHT22;45733;52.668;6.860;2022-07-29T02:39:58;15.00;99.90
59857;DHT22;45733;52.668;6.860;2022-07-29T02:42:26;14.90;99.90
59857;DHT22;45733;52.668;6.860;2022-07-29T02:44:53;14.90;99.90
59857;DHT22;45733;52.668;6.860;2022-07-29T02:47:20;14.90;99.90
59857;DHT22;45733;52.668;6.860;2022-07-29T02:49:48;14.90;99.90
59857;DHT22;45733;52.668;6.860;2022-07-29T02:54:55;14.80;99.90
59857;DHT22;45733;52.668;6.860;2022-07-29T02:57:36;14.80;99.90
59857;DHT22;45733;52.668;6.860;2022-07-29T03:00:07;14.90;99.90
59857;DHT22;45733;52.668;6.860;2022-07-29T03:02:37;14.90;99.90
59857;DHT22;45733;52.668;6.860;2022-07-29T03:05:06;14.80;99.90
59857;DHT22;45733;52.668;6.860;2022-07-29T03:07:34;14.80;99.90
59857;DHT22;45733;52.668;6.860;2022-07-29T03:10:02;14.80;99.90
59857;DHT22;45733;52.668;6.860;2022-07-29T03:12:29;14.80;99.90
59857;DHT22;45733;52.668;6.860;2022-07-29T03:14:55;14.80;99.90
59857;DHT22;45733;52.668;6.860;2022-07-29T03:17:22;14.70;99.90
59857;DHT22;45733;52.668;6.860;2022-07-29T03:19:48;14.70;99.90
59857;DHT22;45733;52.668;6.860;2022-07-29T03:22:14;14.70;99.90
59857;DHT22;45733;52.668;6.860;2022-07-29T03:24:40;14.70;99.90
59857;DHT22;45733;52.668;6.860;2022-07-29T03:27:06;14.60;99.90
59857;DHT22;45733;52.668;6.860;2022-07-29T03:29:32;14.60;99.90
59857;DHT22;45733;52.668;6.860;2022-07-29T03:31:58;14.60;99.90
59857;DHT22;45733;52.668;6.860;2022-07-29T03:34:24;14.50;99.90
59857;DHT22;45733;52.668;6.860;2022-07-29T03:36:50;14.50;99.90
59857;DHT22;45733;52.668;6.860;2022-07-29T03:39:20;14.50;99.90
59857;DHT22;45733;52.668;6.860;2022-07-29T03:41:49;14.50;99.90
59857;DHT22;45733;52.668;6.860;2022-07-29T03:44:21;14.50;99.90
59857;DHT22;45733;52.668;6.860;2022-07-29T03:46:48;14.50;99.90
59857;DHT22;45733;52.668;6.860;2022-07-29T03:49:16;14.50;99.90
59857;DHT22;45733;52.668;6.860;2022-07-29T03:51:42;14.50;99.90
59857;DHT22;45733;52.668;6.860;2022-07-29T03:54:08;14.50;99.90
59857;DHT22;45733;52.668;6.860;2022-07-29T03:56:38;14.50;99.90
59857;DHT22;45733;52.668;6.860;2022-07-29T03:59:05;14.50;99.90
59857;DHT22;45733;52.668;6.860;2022-07-29T04:01:33;14.40;99.90
59857;DHT22;45733;52.668;6.860;2022-07-29T04:04:00;14.40;99.90
59857;DHT22;45733;52.668;6.860;2022-07-29T04:06:26;14.50;99.90
59857;DHT22;45733;52.668;6.860;2022-07-29T04:08:52;14.40;99.90
59857;DHT22;45733;52.668;6.860;2022-07-29T04:11:18;14.60;99.90
59857;DHT22;45733;52.668;6.860;2022-07-29T04:13:44;14.50;99.90
59857;DHT22;45733;52.668;6.860;2022-07-29T04:16:10;14.50;99.90
59857;DHT22;45733;52.668;6.860;2022-07-29T04:18:36;14.50;99.90
59857;DHT22;45733;52.668;6.860;2022-07-29T04:21:01;14.50;99.90
59857;DHT22;45733;52.668;6.860;2022-07-29T04:23:30;14.50;99.90
59857;DHT22;45733;52.668;6.860;2022-07-29T04:26:05;14.50;99.90
59857;DHT22;45733;52.668;6.860;2022-07-29T04:28:30;14.50;99.90
59857;DHT22;45733;52.668;6.860;2022-07-29T04:30:56;14.50;99.90
59857;DHT22;45733;52.668;6.860;2022-07-29T04:33:22;14.60;99.90
59857;DHT22;45733;52.668;6.860;2022-07-29T04:35:48;14.60;99.90
59857;DHT22;45733;52.668;6.860;2022-07-29T04:38:14;14.70;99.90
59857;DHT22;45733;52.668;6.860;2022-07-29T04:40:39;14.60;99.90
59857;DHT22;45733;52.668;6.860;2022-07-29T04:43:05;14.70;99.90
59857;DHT22;45733;52.668;6.860;2022-07-29T04:45:31;14.80;99.90
59857;DHT22;45733;52.668;6.860;2022-07-29T04:47:57;14.80;99.90
59857;DHT22;45733;52.668;6.860;2022-07-29T04:50:23;14.80;99.90
59857;DHT22;45733;52.668;6.860;2022-07-29T04:52:49;14.80;99.90
59857;DHT22;45733;52.668;6.860;2022-07-29T04:55:14;14.80;99.90
59857;DHT22;45733;52.668;6.860;2022-07-29T04:57:40;14.90;99.90
59857;DHT22;45733;52.668;6.860;2022-07-29T05:00:07;15.00;99.90
59857;DHT22;45733;52.668;6.860;2022-07-29T05:02:33;15.00;99.90
59857;DHT22;45733;52.668;6.860;2022-07-29T05:04:59;15.10;99.90
59857;DHT22;45733;52.668;6.860;2022-07-29T05:07:24;15.20;99.90
59857;DHT22;45733;52.668;6.860;2022-07-29T05:09:50;15.20;99.90
59857;DHT22;45733;52.668;6.860;2022-07-29T05:12:16;15.50;99.90
59857;DHT22;45733;52.668;6.860;2022-07-29T05:14:42;15.50;99.90
59857;DHT22;45733;52.668;6.860;2022-07-29T05:17:08;16.50;99.90
59857;DHT22;45733;52.668;6.860;2022-07-29T05:19:33;17.30;99.90
59857;DHT22;45733;52.668;6.860;2022-07-29T05:21:59;18.10;99.90
59857;DHT22;45733;52.668;6.860;2022-07-29T05:24:25;17.80;99.90
59857;DHT22;45733;52.668;6.860;2022-07-29T05:26:51;17.90;99.90
59857;DHT22;45733;52.668;6.860;2022-07-29T05:29:17;17.10;99.90
59857;DHT22;45733;52.668;6.860;2022-07-29T05:31:43;17.00;99.90
59857;DHT22;45733;52.668;6.860;2022-07-29T05:34:09;16.80;99.90
59857;DHT22;45733;52.668;6.860;2022-07-29T05:36:34;16.90;99.90
59857;DHT22;45733;52.668;6.860;2022-07-29T05:39:00;16.70;99.90
59857;DHT22;45733;52.668;6.860;2022-07-29T05:41:26;16.80;99.90
59857;DHT22;45733;52.668;6.860;2022-07-29T05:43:51;17.40;99.90
59857;DHT22;45733;52.668;6.860;2022-07-29T05:46:17;17.80;99.90
59857;DHT22;45733;52.668;6.860;2022-07-29T05:48:43;18.20;99.90
59857;DHT22;45733;52.668;6.860;2022-07-29T05:51:09;18.40;99.90
59857;DHT22;45733;52.668;6.860;2022-07-29T05:53:35;18.80;99.90
59857;DHT22;45733;52.668;6.860;2022-07-29T05:56:03;18.30;99.90
59857;DHT22;45733;52.668;6.860;2022-07-29T05:58:30;18.00;99.90
59857;DHT22;45733;52.668;6.860;2022-07-29T06:00:56;17.90;99.90
59857;DHT22;45733;52.668;6.860;2022-07-29T06:03:25;18.10;99.90
59857;DHT22;45733;52.668;6.860;2022-07-29T06:05:51;18.30;99.90
59857;DHT22;45733;52.668;6.860;2022-07-29T06:08:16;18.80;99.90
59857;DHT22;45733;52.668;6.860;2022-07-29T06:10:43;18.70;99.90
59857;DHT22;45733;52.668;6.860;2022-07-29T06:13:09;19.00;99.90
59857;DHT22;45733;52.668;6.860;2022-07-29T06:15:34;18.60;99.90
59857;DHT22;45733;52.668;6.860;2022-07-29T06:18:01;18.00;99.90
59857;DHT22;45733;52.668;6.860;2022-07-29T06:20:30;18.40;99.90
59857;DHT22;45733;52.668;6.860;2022-07-29T06:22:56;18.30;99.90
59857;DHT22;45733;52.668;6.860;2022-07-29T06:25:22;18.30;99.90
59857;DHT22;45733;52.668;6.860;2022-07-29T06:27:48;18.00;99.90
59857;DHT22;45733;52.668;6.860;2022-07-29T06:30:14;18.30;99.90
59857;DHT22;45733;52.668;6.860;2022-07-29T06:32:41;17.80;99.90
59857;DHT22;45733;52.668;6.860;2022-07-29T06:35:07;17.80;99.90
59857;DHT22;45733;52.668;6.860;2022-07-29T06:37:33;17.50;99.90
59857;DHT22;45733;52.668;6.860;2022-07-29T06:39:58;17.40;99.90
59857;DHT22;45733;52.668;6.860;2022-07-29T06:42:43;17.70;99.90
59857;DHT22;45733;52.668;6.860;2022-07-29T06:45:14;17.70;99.90
59857;DHT22;45733;52.668;6.860;2022-07-29T06:47:40;17.40;99.90
59857;DHT22;45733;52.668;6.860;2022-07-29T06:50:06;17.20;99.90
59857;DHT22;45733;52.668;6.860;2022-07-29T06:52:32;17.50;99.90
59857;DHT22;45733;52.668;6.860;2022-07-29T06:54:57;17.30;99.90
59857;DHT22;45733;52.668;6.860;2022-07-29T06:57:24;17.70;99.90
59857;DHT22;45733;52.668;6.860;2022-07-29T06:59:50;17.80;99.90
59857;DHT22;45733;52.668;6.860;2022-07-29T07:02:16;17.40;99.90
59857;DHT22;45733;52.668;6.860;2022-07-29T07:04:42;17.40;99.90
59857;DHT22;45733;52.668;6.860;2022-07-29T07:07:08;17.70;99.90
59857;DHT22;45733;52.668;6.860;2022-07-29T07:09:33;17.70;99.90
59857;DHT22;45733;52.668;6.860;2022-07-29T07:11:59;17.80;99.90
59857;DHT22;45733;52.668;6.860;2022-07-29T07:14:25;18.00;99.90
59857;DHT22;45733;52.668;6.860;2022-07-29T07:16:52;17.90;99.90
59857;DHT22;45733;52.668;6.860;2022-07-29T07:19:17;17.50;99.90
59857;DHT22;45733;52.668;6.860;2022-07-29T07:21:44;17.20;99.90
59857;DHT22;45733;52.668;6.860;2022-07-29T07:24:10;17.40;99.90
59857;DHT22;45733;52.668;6.860;2022-07-29T07:26:36;17.70;99.90
59857;DHT22;45733;52.668;6.860;2022-07-29T07:29:02;17.70;99.90
59857;DHT22;45733;52.668;6.860;2022-07-29T07:31:27;17.90;99.90
59857;DHT22;45733;52.668;6.860;2022-07-29T07:33:54;17.80;99.90
59857;DHT22;45733;52.668;6.860;2022-07-29T07:36:20;18.30;99.90
59857;DHT22;45733;52.668;6.860;2022-07-29T07:38:46;18.20;99.90
59857;DHT22;45733;52.668;6.860;2022-07-29T07:41:11;18.60;99.90
59857;DHT22;45733;52.668;6.860;2022-07-29T07:43:37;18.40;99.90
59857;DHT22;45733;52.668;6.860;2022-07-29T07:46:03;18.50;99.90
59857;DHT22;45733;52.668;6.860;2022-07-29T07:48:29;18.70;99.90
59857;DHT22;45733;52.668;6.860;2022-07-29T07:50:55;18.70;99.90
59857;DHT22;45733;52.668;6.860;2022-07-29T07:53:21;18.80;99.90
59857;DHT22;45733;52.668;6.860;2022-07-29T07:55:47;19.00;99.90
59857;DHT22;45733;52.668;6.860;2022-07-29T07:58:13;19.00;99.90
59857;DHT22;45733;52.668;6.860;2022-07-29T08:00:39;18.80;99.90
59857;DHT22;45733;52.668;6.860;2022-07-29T08:03:04;18.70;99.90
59857;DHT22;45733;52.668;6.860;2022-07-29T08:05:30;18.70;99.90
59857;DHT22;45733;52.668;6.860;2022-07-29T08:07:56;18.70;99.90
59857;DHT22;45733;52.668;6.860;2022-07-29T08:10:22;18.70;99.90
59857;DHT22;45733;52.668;6.860;2022-07-29T08:13:07;18.90;99.90
59857;DHT22;45733;52.668;6.860;2022-07-29T08:15:33;18.60;99.90
59857;DHT22;45733;52.668;6.860;2022-07-29T08:18:00;18.30;99.90
59857;DHT22;45733;52.668;6.860;2022-07-29T08:20:26;18.60;99.90
59857;DHT22;45733;52.668;6.860;2022-07-29T08:22:52;18.50;99.90
59857;DHT22;45733;52.668;6.860;2022-07-29T08:25:19;18.50;99.90
59857;DHT22;45733;52.668;6.860;2022-07-29T08:27:47;18.50;99.90
59857;DHT22;45733;52.668;6.860;2022-07-29T08:30:13;18.40;99.90
59857;DHT22;45733;52.668;6.860;2022-07-29T08:32:39;18.70;99.90
59857;DHT22;45733;52.668;6.860;2022-07-29T08:35:05;18.50;99.90
59857;DHT22;45733;52.668;6.860;2022-07-29T08:37:31;18.60;99.90
59857;DHT22;45733;52.668;6.860;2022-07-29T08:39:56;18.80;99.90
59857;DHT22;45733;52.668;6.860;2022-07-29T08:42:22;18.70;99.90
59857;DHT22;45733;52.668;6.860;2022-07-29T08:44:48;18.80;99.90
59857;DHT22;45733;52.668;6.860;2022-07-29T08:47:16;18.80;99.90
59857;DHT22;45733;52.668;6.860;2022-07-29T08:49:42;18.50;99.90
59857;DHT22;45733;52.668;6.860;2022-07-29T08:52:12;18.70;99.90
59857;DHT22;45733;52.668;6.860;2022-07-29T08:54:40;18.80;99.90
59857;DHT22;45733;52.668;6.860;2022-07-29T08:57:10;19.20;99.90
59857;DHT22;45733;52.668;6.860;2022-07-29T08:59:40;19.30;99.90
59857;DHT22;45733;52.668;6.860;2022-07-29T09:02:15;19.40;99.90
59857;DHT22;45733;52.668;6.860;2022-07-29T09:04:44;19.20;99.90
59857;DHT22;45733;52.668;6.860;2022-07-29T09:07:18;19.30;99.90
59857;DHT22;45733;52.668;6.860;2022-07-29T09:09:44;19.20;99.90
59857;DHT22;45733;52.668;6.860;2022-07-29T09:12:12;19.40;99.90
59857;DHT22;45733;52.668;6.860;2022-07-29T09:14:38;19.50;99.90
59857;DHT22;45733;52.668;6.860;2022-07-29T09:17:05;19.20;99.90
59857;DHT22;45733;52.668;6.860;2022-07-29T09:19:32;19.30;99.90
59857;DHT22;45733;52.668;6.860;2022-07-29T09:22:02;19.20;99.90
59857;DHT22;45733;52.668;6.860;2022-07-29T09:24:45;19.60;99.90
59857;DHT22;45733;52.668;6.860;2022-07-29T09:27:25;19.70;99.90
59857;DHT22;45733;52.668;6.860;2022-07-29T09:30:00;19.90;99.90
59857;DHT22;45733;52.668;6.860;2022-07-29T09:32:26;19.90;99.90
59857;DHT22;45733;52.668;6.860;2022-07-29T09:35:15;20.00;99.90
59857;DHT22;45733;52.668;6.860;2022-07-29T09:37:42;20.00;99.90
59857;DHT22;45733;52.668;6.860;2022-07-29T09:40:17;19.90;99.90
59857;DHT22;45733;52.668;6.860;2022-07-29T09:42:44;19.50;99.90
59857;DHT22;45733;52.668;6.860;2022-07-29T09:45:11;19.60;99.90
59857;DHT22;45733;52.668;6.860;2022-07-29T09:47:43;19.70;99.90
59857;DHT22;45733;52.668;6.860;2022-07-29T09:50:15;19.60;99.90
59857;DHT22;45733;52.668;6.860;2022-07-29T09:52:49;19.50;99.90
59857;DHT22;45733;52.668;6.860;2022-07-29T09:55:15;19.40;99.90
59857;DHT22;45733;52.668;6.860;2022-07-29T09:57:41;19.30;99.90
59857;DHT22;45733;52.668;6.860;2022-07-29T10:00:12;19.30;99.90
59857;DHT22;45733;52.668;6.860;2022-07-29T10:02:39;19.30;99.90
59857;DHT22;45733;52.668;6.860;2022-07-29T10:05:17;19.20;99.90
59857;DHT22;45733;52.668;6.860;2022-07-29T10:10:31;19.50;99.90
59857;DHT22;45733;52.668;6.860;2022-07-29T10:13:00;19.50;99.90
59857;DHT22;45733;52.668;6.860;2022-07-29T10:15:31;19.60;99.90
59857;DHT22;45733;52.668;6.860;2022-07-29T10:17:58;19.60;99.90
59857;DHT22;45733;52.668;6.860;2022-07-29T10:20:26;19.60;99.90
59857;DHT22;45733;52.668;6.860;2022-07-29T10:22:52;19.60;99.90
59857;DHT22;45733;52.668;6.860;2022-07-29T10:25:19;19.40;99.90
59857;DHT22;45733;52.668;6.860;2022-07-29T10:27:47;19.50;99.90
59857;DHT22;45733;52.668;6.860;2022-07-29T10:30:14;19.50;99.90
59857;DHT22;45733;52.668;6.860;2022-07-29T10:33:08;19.60;99.90
59857;DHT22;45733;52.668;6.860;2022-07-29T10:35:48;19.70;99.90
59857;DHT22;45733;52.668;6.860;2022-07-29T10:44:23;19.90;99.90
59857;DHT22;45733;52.668;6.860;2022-07-29T10:46:51;20.00;99.90
59857;DHT22;45733;52.668;6.860;2022-07-29T10:49:18;19.90;99.90
59857;DHT22;45733;52.668;6.860;2022-07-29T10:51:52;20.10;99.90
59857;DHT22;45733;52.668;6.860;2022-07-29T10:54:18;20.00;99.90
59857;DHT22;45733;52.668;6.860;2022-07-29T10:56:44;20.00;99.90
59857;DHT22;45733;52.668;6.860;2022-07-29T11:01:50;20.50;99.90
59857;DHT22;45733;52.668;6.860;2022-07-29T11:07:11;20.30;99.90
59857;DHT22;45733;52.668;6.860;2022-07-29T11:09:37;20.40;99.90
59857;DHT22;45733;52.668;6.860;2022-07-29T11:15:00;20.20;99.90
59857;DHT22;45733;52.668;6.860;2022-07-29T11:17:28;20.10;99.90
59857;DHT22;45733;52.668;6.860;2022-07-29T11:22:58;20.20;99.90
59857;DHT22;45733;52.668;6.860;2022-07-29T11:25:24;20.10;99.90
59857;DHT22;45733;52.668;6.860;2022-07-29T11:28:11;19.90;99.90
59857;DHT22;45733;52.668;6.860;2022-07-29T11:30:52;20.10;99.90
59857;DHT22;45733;52.668;6.860;2022-07-29T11:33:32;20.10;99.90
59857;DHT22;45733;52.668;6.860;2022-07-29T11:36:27;20.10;99.90
59857;DHT22;45733;52.668;6.860;2022-07-29T11:39:26;20.20;99.90
59857;DHT22;45733;52.668;6.860;2022-07-29T11:41:52;20.40;99.90
59857;DHT22;45733;52.668;6.860;2022-07-29T11:44:54;20.20;99.90
59857;DHT22;45733;52.668;6.860;2022-07-29T11:47:22;20.10;99.90
59857;DHT22;45733;52.668;6.860;2022-07-29T11:49:48;20.20;99.90
59857;DHT22;45733;52.668;6.860;2022-07-29T11:52:17;20.20;99.90
59857;DHT22;45733;52.668;6.860;2022-07-29T11:55:04;20.20;99.90
59857;DHT22;45733;52.668;6.860;2022-07-29T11:57:31;20.40;99.90
59857;DHT22;45733;52.668;6.860;2022-07-29T11:59:58;20.50;99.90
59857;DHT22;45733;52.668;6.860;2022-07-29T12:02:24;20.50;99.90
59857;DHT22;45733;52.668;6.860;2022-07-29T12:04:54;20.50;99.90
59857;DHT22;45733;52.668;6.860;2022-07-29T12:09:53;20.60;99.90
59857;DHT22;45733;52.668;6.860;2022-07-29T12:12:20;20.60;99.90
59857;DHT22;45733;52.668;6.860;2022-07-29T12:14:46;20.60;99.90
59857;DHT22;45733;52.668;6.860;2022-07-29T12:17:33;20.90;99.90
59857;DHT22;45733;52.668;6.860;2022-07-29T12:20:11;21.00;99.90
59857;DHT22;45733;52.668;6.860;2022-07-29T12:22:41;21.20;99.90
59857;DHT22;45733;52.668;6.860;2022-07-29T12:25:11;21.20;99.90
59857;DHT22;45733;52.668;6.860;2022-07-29T12:27:40;21.30;99.90
59857;DHT22;45733;52.668;6.860;2022-07-29T12:30:08;21.20;99.90
59857;DHT22;45733;52.668;6.860;2022-07-29T12:32:36;21.50;99.90
59857;DHT22;45733;52.668;6.860;2022-07-29T12:35:20;21.70;99.90
59857;DHT22;45733;52.668;6.860;2022-07-29T12:37:47;21.70;99.90
59857;DHT22;45733;52.668;6.860;2022-07-29T12:40:15;21.80;99.90
59857;DHT22;45733;52.668;6.860;2022-07-29T12:43:12;22.00;99.90
59857;DHT22;45733;52.668;6.860;2022-07-29T12:45:39;22.10;99.90
59857;DHT22;45733;52.668;6.860;2022-07-29T12:48:06;22.30;99.90
59857;DHT22;45733;52.668;6.860;2022-07-29T12:50:35;22.30;99.90
59857;DHT22;45733;52.668;6.860;2022-07-29T12:53:12;22.40;99.90
59857;DHT22;45733;52.668;6.860;2022-07-29T12:55:46;22.30;99.90
59857;DHT22;45733;52.668;6.860;2022-07-29T12:58:33;22.80;99.90
59857;DHT22;45733;52.668;6.860;2022-07-29T13:01:16;23.00;99.90
59857;DHT22;45733;52.668;6.860;2022-07-29T13:09:03;23.20;99.90
59857;DHT22;45733;52.668;6.860;2022-07-29T13:13:58;23.50;99.90
59857;DHT22;45733;52.668;6.860;2022-07-29T13:16:24;23.60;99.90
59857;DHT22;45733;52.668;6.860;2022-07-29T13:21:31;24.30;99.90
59857;DHT22;45733;52.668;6.860;2022-07-29T13:23:57;24.90;99.90
59857;DHT22;45733;52.668;6.860;2022-07-29T13:26:23;24.40;99.90
59857;DHT22;45733;52.668;6.860;2022-07-29T13:28:49;24.30;99.90
59857;DHT22;45733;52.668;6.860;2022-07-29T13:31:15;24.00;99.90
59857;DHT22;45733;52.668;6.860;2022-07-29T13:33:41;24.00;99.90
59857;DHT22;45733;52.668;6.860;2022-07-29T13:36:07;24.20;99.90
59857;DHT22;45733;52.668;6.860;2022-07-29T13:38:32;24.60;99.90
59857;DHT22;45733;52.668;6.860;2022-07-29T13:40:59;24.20;99.90
59857;DHT22;45733;52.668;6.860;2022-07-29T13:43:26;24.50;99.90
59857;DHT22;45733;52.668;6.860;2022-07-29T13:45:51;24.30;99.90
59857;DHT22;45733;52.668;6.860;2022-07-29T13:48:17;24.50;99.90
59857;DHT22;45733;52.668;6.860;2022-07-29T13:50:43;24.70;99.90
59857;DHT22;45733;52.668;6.860;2022-07-29T13:53:09;24.70;99.90
59857;DHT22;45733;52.668;6.860;2022-07-29T13:55:35;25.40;99.90
59857;DHT22;45733;52.668;6.860;2022-07-29T13:58:01;25.50;99.90
59857;DHT22;45733;52.668;6.860;2022-07-29T14:00:27;24.80;99.90
59857;DHT22;45733;52.668;6.860;2022-07-29T14:02:52;24.30;99.90
59857;DHT22;45733;52.668;6.860;2022-07-29T14:05:18;24.30;99.90
59857;DHT22;45733;52.668;6.860;2022-07-29T14:07:44;24.20;99.90
59857;DHT22;45733;52.668;6.860;2022-07-29T14:10:10;24.10;99.90
59857;DHT22;45733;52.668;6.860;2022-07-29T14:12:36;24.40;99.90
59857;DHT22;45733;52.668;6.860;2022-07-29T14:15:02;24.40;99.90
59857;DHT22;45733;52.668;6.860;2022-07-29T14:17:28;24.80;99.90
59857;DHT22;45733;52.668;6.860;2022-07-29T14:19:54;24.60;99.90
59857;DHT22;45733;52.668;6.860;2022-07-29T14:22:19;24.80;99.90
59857;DHT22;45733;52.668;6.860;2022-07-29T14:24:45;25.00;99.90
59857;DHT22;45733;52.668;6.860;2022-07-29T14:27:11;24.90;99.90
59857;DHT22;45733;52.668;6.860;2022-07-29T14:29:37;25.00;99.90
59857;DHT22;45733;52.668;6.860;2022-07-29T14:32:04;24.80;99.90
59857;DHT22;45733;52.668;6.860;2022-07-29T14:34:30;24.70;99.90
59857;DHT22;45733;52.668;6.860;2022-07-29T14:36:55;24.90;99.90
59857;DHT22;45733;52.668;6.860;2022-07-29T14:39:22;24.50;99.90
59857;DHT22;45733;52.668;6.860;2022-07-29T14:41:51;24.80;99.90
59857;DHT22;45733;52.668;6.860;2022-07-29T14:44:17;25.10;99.90
59857;DHT22;45733;52.668;6.860;2022-07-29T14:46:43;25.60;99.90
59857;DHT22;45733;52.668;6.860;2022-07-29T14:49:09;25.80;99.90
59857;DHT22;45733;52.668;6.860;2022-07-29T14:51:35;26.10;99.90
59857;DHT22;45733;52.668;6.860;2022-07-29T14:54:01;26.00;99.90
59857;DHT22;45733;52.668;6.860;2022-07-29T14:56:27;25.80;99.90
59857;DHT22;45733;52.668;6.860;2022-07-29T14:58:56;24.90;99.90
59857;DHT22;45733;52.668;6.860;2022-07-29T15:01:23;25.00;99.90
59857;DHT22;45733;52.668;6.860;2022-07-29T15:03:49;25.00;99.90
59857;DHT22;45733;52.668;6.860;2022-07-29T15:06:16;25.00;99.90
59857;DHT22;45733;52.668;6.860;2022-07-29T15:08:41;25.30;99.90
59857;DHT22;45733;52.668;6.860;2022-07-29T15:11:07;24.30;99.90
59857;DHT22;45733;52.668;6.860;2022-07-29T15:13:34;24.70;99.90
59857;DHT22;45733;52.668;6.860;2022-07-29T15:16:00;24.50;99.90
59857;DHT22;45733;52.668;6.860;2022-07-29T15:18:26;24.30;99.90
59857;DHT22;45733;52.668;6.860;2022-07-29T15:20:52;24.60;99.90
59857;DHT22;45733;52.668;6.860;2022-07-29T15:23:17;24.50;99.90
59857;DHT22;45733;52.668;6.860;2022-07-29T15:25:43;24.80;99.90
59857;DHT22;45733;52.668;6.860;2022-07-29T15:28:09;24.60;99.90
59857;DHT22;45733;52.668;6.860;2022-07-29T15:30:35;24.90;99.90
59857;DHT22;45733;52.668;6.860;2022-07-29T15:33:07;25.10;99.90
59857;DHT22;45733;52.668;6.860;2022-07-29T15:35:33;25.30;99.90
59857;DHT22;45733;52.668;6.860;2022-07-29T15:37:59;25.20;99.90
59857;DHT22;45733;52.668;6.860;2022-07-29T15:40:25;24.90;99.90
59857;DHT22;45733;52.668;6.860;2022-07-29T15:42:51;24.80;99.90
59857;DHT22;45733;52.668;6.860;2022-07-29T15:45:17;25.10;99.90
59857;DHT22;45733;52.668;6.860;2022-07-29T15:47:43;24.90;99.90
59857;DHT22;45733;52.668;6.860;2022-07-29T15:50:09;25.00;99.90
59857;DHT22;45733;52.668;6.860;2022-07-29T15:52:40;24.80;99.90
59857;DHT22;45733;52.668;6.860;2022-07-29T15:55:06;24.80;99.90
59857;DHT22;45733;52.668;6.860;2022-07-29T15:57:32;24.60;99.90
59857;DHT22;45733;52.668;6.860;2022-07-29T16:00:02;24.90;99.90
59857;DHT22;45733;52.668;6.860;2022-07-29T16:02:28;24.80;99.90
59857;DHT22;45733;52.668;6.860;2022-07-29T16:04:54;24.40;99.20
59857;DHT22;45733;52.668;6.860;2022-07-29T16:07:19;24.80;99.80
59857;DHT22;45733;52.668;6.860;2022-07-29T16:09:45;24.80;99.90
59857;DHT22;45733;52.668;6.860;2022-07-29T16:12:11;24.80;99.90
59857;DHT22;45733;52.668;6.860;2022-07-29T16:14:37;24.80;99.90
59857;DHT22;45733;52.668;6.860;2022-07-29T16:17:02;24.60;99.50
59857;DHT22;45733;52.668;6.860;2022-07-29T16:19:29;24.60;99.90
59857;DHT22;45733;52.668;6.860;2022-07-29T16:21:55;24.30;99.70
59857;DHT22;45733;52.668;6.860;2022-07-29T16:24:21;24.40;99.90
59857;DHT22;45733;52.668;6.860;2022-07-29T16:26:46;24.60;99.90